Time;durP1;ratioP1;P1;durP2;ratioP2;P2;SDS_P1;SDS_P2;PMS_P1;PMS_P2;Temp;Humidity;BMP_temperature;BMP_pressure;BME280_temperature;BME280_humidity;BME280_pressure;Samples;Min_cycle;Max_cycle;Signal;HPM_P1;HPM_P2
2022/10/19 04:01:40;;;;;;;17.52;15.93;;;;;;;;;;5517658;23;20431;-81
2022/10/19 04:04:07;;;;;;;17.63;16.03;;;;;;;;;;5019394;28;20493;-81
2022/10/19 04:06:35;;;;;;;17.25;15.75;;;;;;;;;;5030730;28;20407;-81
2022/10/19 04:09:01;;;;;;;17.98;16.35;;;;;;;;;;5032307;28;20479;-81
2022/10/19 04:11:28;;;;;;;19.00;17.20;;;;;;;;;;5023394;28;20479;-81
2022/10/19 04:13:55;;;;;;;17.33;15.52;;;;;;;;;;5012642;28;20392;-81
2022/10/19 04:16:22;;;;;;;16.88;15.27;;;;;;;;;;5012580;28;20388;-81
2022/10/19 04:18:48;;;;;;;18.42;16.60;;;;;;;;;;5012671;28;20443;-81
2022/10/19 04:21:25;;;;;;;18.50;16.80;;;;;;;;;;5012143;28;20392;-81
2022/10/19 04:23:52;;;;;;;18.35;16.65;;;;;;;;;;5012166;28;20380;-83
2022/10/19 04:26:18;;;;;;;18.85;16.85;;;;;;;;;;4996403;28;20414;-83
2022/10/19 04:28:44;;;;;;;20.40;17.70;;;;;;;;;;4992242;28;20390;-83
2022/10/19 04:31:11;;;;;;;17.50;15.82;;;;;;;;;;4992175;28;20386;-83
2022/10/19 04:33:37;;;;;;;19.25;17.33;;;;;;;;;;5000069;28;20387;-83
2022/10/19 04:36:04;;;;;;;19.13;17.25;;;;;;;;;;5012297;28;20465;-85
2022/10/19 04:38:31;;;;;;;17.40;15.70;;;;;;;;;;5012159;28;20802;-83
2022/10/19 04:41:04;;;;;;;17.52;15.93;;;;;;;;;;5011710;28;20381;-83
2022/10/19 04:43:30;;;;;;;18.23;16.27;;;;;;;;;;5010485;28;20393;-83
2022/10/19 04:45:56;;;;;;;18.58;16.70;;;;;;;;;;5012034;28;20405;-83
2022/10/19 04:48:22;;;;;;;18.48;16.65;;;;;;;;;;5012215;28;20400;-83
2022/10/19 04:50:48;;;;;;;19.60;17.55;;;;;;;;;;5012258;28;20392;-83
2022/10/19 04:53:14;;;;;;;19.45;17.58;;;;;;;;;;5012251;28;20385;-83
2022/10/19 04:55:43;;;;;;;18.40;16.55;;;;;;;;;;5010769;28;20385;-83
2022/10/19 04:58:09;;;;;;;18.02;16.42;;;;;;;;;;5015830;28;20387;-83
2022/10/19 05:00:37;;;;;;;19.02;17.13;;;;;;;;;;5015135;28;20514;-83
2022/10/19 05:03:03;;;;;;;17.80;16.10;;;;;;;;;;5011799;28;20404;-83
2022/10/19 05:05:29;;;;;;;17.70;16.00;;;;;;;;;;5011878;28;20421;-83
2022/10/19 05:07:55;;;;;;;18.50;16.70;;;;;;;;;;5009225;28;20391;-83
2022/10/19 05:10:21;;;;;;;17.67;15.90;;;;;;;;;;5011933;28;20377;-83
2022/10/19 05:12:47;;;;;;;18.33;16.42;;;;;;;;;;5010870;28;20420;-83
2022/10/19 05:15:13;;;;;;;18.63;16.60;;;;;;;;;;5010959;28;20396;-83
2022/10/19 05:17:39;;;;;;;17.75;16.13;;;;;;;;;;5009114;28;20449;-83
2022/10/19 05:20:05;;;;;;;17.20;15.57;;;;;;;;;;5010588;28;20442;-83
2022/10/19 05:22:31;;;;;;;16.55;14.93;;;;;;;;;;4996598;28;20390;-82
2022/10/19 05:24:57;;;;;;;16.45;14.90;;;;;;;;;;5008983;28;20500;-83
2022/10/19 05:27:23;;;;;;;17.80;16.05;;;;;;;;;;5011676;28;20932;-82
2022/10/19 05:29:49;;;;;;;15.77;14.38;;;;;;;;;;5011306;28;20378;-83
2022/10/19 05:32:15;;;;;;;16.63;15.02;;;;;;;;;;5009688;28;20464;-83
2022/10/19 05:34:41;;;;;;;15.95;14.35;;;;;;;;;;5013286;28;20392;-82
2022/10/19 05:37:07;;;;;;;16.38;14.75;;;;;;;;;;5013190;28;20427;-83
2022/10/19 05:39:33;;;;;;;16.30;14.80;;;;;;;;;;5013319;28;21182;-82
2022/10/19 05:41:59;;;;;;;16.45;14.93;;;;;;;;;;5013847;28;20396;-83
2022/10/19 05:44:25;;;;;;;15.60;14.25;;;;;;;;;;5015207;28;20376;-83
2022/10/19 05:46:52;;;;;;;16.48;14.80;;;;;;;;;;5012942;28;20571;-84
2022/10/19 05:49:18;;;;;;;16.40;14.88;;;;;;;;;;5012812;28;20392;-83
2022/10/19 05:51:44;;;;;;;15.00;13.52;;;;;;;;;;5013832;28;20734;-84
2022/10/19 05:54:11;;;;;;;15.40;13.77;;;;;;;;;;5014184;28;20384;-82
2022/10/19 05:56:37;;;;;;;16.52;14.82;;;;;;;;;;5013926;28;20726;-82
2022/10/19 05:59:04;;;;;;;15.60;14.30;;;;;;;;;;5014514;28;20719;-85
2022/10/19 06:01:31;;;;;;;15.73;14.30;;;;;;;;;;5014799;28;20407;-84
2022/10/19 06:03:58;;;;;;;17.77;16.02;;;;;;;;;;5014906;28;20882;-84
2022/10/19 06:06:24;;;;;;;22.70;19.70;;;;;;;;;;5015067;28;20479;-85
2022/10/19 06:08:51;;;;;;;26.13;22.80;;;;;;;;;;5022255;28;20785;-86
2022/10/19 06:11:18;;;;;;;25.35;20.65;;;;;;;;;;5014564;28;20392;-84
2022/10/19 06:13:45;;;;;;;21.30;19.15;;;;;;;;;;5014584;28;20381;-84
2022/10/19 06:16:12;;;;;;;18.63;16.92;;;;;;;;;;5014827;28;20734;-83
2022/10/19 06:18:38;;;;;;;16.25;14.80;;;;;;;;;;5014605;28;20385;-83
2022/10/19 06:21:05;;;;;;;15.02;13.57;;;;;;;;;;5014407;28;20476;-84
2022/10/19 06:23:32;;;;;;;14.82;13.45;;;;;;;;;;5014458;28;20443;-83
2022/10/19 06:25:58;;;;;;;13.18;12.07;;;;;;;;;;5012961;28;20492;-83
2022/10/19 06:28:24;;;;;;;13.65;12.55;;;;;;;;;;5014121;28;20388;-83
2022/10/19 06:30:50;;;;;;;14.20;12.90;;;;;;;;;;5011026;28;20385;-85
2022/10/19 06:33:16;;;;;;;12.93;11.80;;;;;;;;;;5010601;28;20431;-83
2022/10/19 06:35:42;;;;;;;13.23;12.03;;;;;;;;;;5007893;28;20759;-82
2022/10/19 06:38:09;;;;;;;13.43;12.15;;;;;;;;;;5008917;28;20392;-84
2022/10/19 06:40:36;;;;;;;13.43;12.20;;;;;;;;;;5012374;28;20395;-82
2022/10/19 06:43:02;;;;;;;13.93;12.50;;;;;;;;;;5012499;28;20393;-83
2022/10/19 06:45:27;;;;;;;13.43;12.20;;;;;;;;;;5013124;28;20416;-83
2022/10/19 06:47:53;;;;;;;13.13;11.93;;;;;;;;;;5011897;28;20743;-83
2022/10/19 06:50:19;;;;;;;13.32;12.27;;;;;;;;;;5013344;28;20392;-82
2022/10/19 06:52:46;;;;;;;14.18;12.77;;;;;;;;;;5012666;28;20392;-82
2022/10/19 06:55:12;;;;;;;14.27;12.97;;;;;;;;;;5013958;28;20396;-83
2022/10/19 06:57:38;;;;;;;15.25;13.90;;;;;;;;;;5012566;28;20389;-82
2022/10/19 07:00:05;;;;;;;15.50;14.00;;;;;;;;;;5011658;28;20443;-83
2022/10/19 07:02:31;;;;;;;16.73;14.80;;;;;;;;;;5011306;28;20397;-82
2022/10/19 07:04:57;;;;;;;15.02;13.68;;;;;;;;;;5011237;28;20381;-82
2022/10/19 07:07:23;;;;;;;14.95;13.55;;;;;;;;;;5011975;28;20870;-82
2022/10/19 07:09:49;;;;;;;18.55;15.35;;;;;;;;;;5011740;28;20463;-84
2022/10/19 07:12:15;;;;;;;19.90;15.17;;;;;;;;;;5009878;28;21003;-86
2022/10/19 07:14:41;;;;;;;16.58;14.88;;;;;;;;;;5023570;28;20466;-85
2022/10/19 07:17:07;;;;;;;18.05;15.65;;;;;;;;;;5004872;28;20472;-85
2022/10/19 07:19:33;;;;;;;18.42;15.73;;;;;;;;;;5013305;28;20381;-85
2022/10/19 07:21:59;;;;;;;18.20;16.23;;;;;;;;;;5013314;28;20389;-84
2022/10/19 07:24:25;;;;;;;21.25;16.30;;;;;;;;;;5013025;28;20929;-84
2022/10/19 07:26:51;;;;;;;19.75;16.20;;;;;;;;;;5011935;28;20412;-84
2022/10/19 07:29:17;;;;;;;22.05;16.65;;;;;;;;;;5011996;28;20783;-84
2022/10/19 07:31:43;;;;;;;21.35;16.98;;;;;;;;;;5011886;28;20396;-85
2022/10/19 07:34:10;;;;;;;24.98;17.05;;;;;;;;;;5011492;28;20456;-86
2022/10/19 07:36:36;;;;;;;21.33;16.15;;;;;;;;;;5011420;28;20420;-86
2022/10/19 07:39:05;;;;;;;21.15;16.92;;;;;;;;;;5012163;28;20822;-82
2022/10/19 07:41:31;;;;;;;20.02;16.58;;;;;;;;;;5007433;28;20488;-83
2022/10/19 07:43:57;;;;;;;18.75;16.02;;;;;;;;;;5011265;28;20914;-83
2022/10/19 07:46:24;;;;;;;20.67;16.88;;;;;;;;;;5011057;28;20429;-84
2022/10/19 07:48:50;;;;;;;18.93;16.03;;;;;;;;;;5012080;28;20492;-84
2022/10/19 07:51:17;;;;;;;20.63;16.23;;;;;;;;;;5011646;28;20385;-85
2022/10/19 07:53:43;;;;;;;19.70;16.38;;;;;;;;;;5011719;28;20388;-85
2022/10/19 07:56:10;;;;;;;18.60;15.98;;;;;;;;;;5011490;28;20400;-85
2022/10/19 07:58:36;;;;;;;18.42;16.25;;;;;;;;;;5013477;28;20381;-86
2022/10/19 08:01:03;;;;;;;18.30;16.05;;;;;;;;;;5012566;28;20858;-85
2022/10/19 08:03:29;;;;;;;19.00;16.45;;;;;;;;;;5012963;28;20774;-84
2022/10/19 08:06:02;;;;;;;18.83;16.63;;;;;;;;;;5010114;28;20420;-84
2022/10/19 08:08:29;;;;;;;17.50;15.68;;;;;;;;;;5007748;28;20762;-84
2022/10/19 08:10:55;;;;;;;16.92;15.23;;;;;;;;;;5012501;28;20373;-84
2022/10/19 08:13:21;;;;;;;16.05;14.45;;;;;;;;;;5012504;28;20380;-84
2022/10/19 08:15:47;;;;;;;16.15;14.50;;;;;;;;;;5012527;28;20389;-84
2022/10/19 08:18:13;;;;;;;15.25;13.85;;;;;;;;;;5012514;28;20885;-84
2022/10/19 08:20:43;;;;;;;17.40;15.38;;;;;;;;;;5012808;28;20435;-83
2022/10/19 08:23:09;;;;;;;15.40;14.00;;;;;;;;;;5012469;28;20391;-82
2022/10/19 08:25:36;;;;;;;14.70;13.40;;;;;;;;;;5012407;28;20411;-82
2022/10/19 08:28:02;;;;;;;14.40;13.20;;;;;;;;;;5012441;28;20373;-82
2022/10/19 08:30:28;;;;;;;14.38;13.07;;;;;;;;;;5012352;28;20389;-82
2022/10/19 08:32:54;;;;;;;15.15;12.90;;;;;;;;;;5012752;28;20388;-82
2022/10/19 08:35:20;;;;;;;15.47;13.97;;;;;;;;;;5012350;28;20392;-82
2022/10/19 08:37:46;;;;;;;13.70;12.38;;;;;;;;;;5012708;28;20385;-83
2022/10/19 08:40:23;;;;;;;13.82;12.63;;;;;;;;;;5012312;28;20751;-82
2022/10/19 08:42:56;;;;;;;15.27;13.77;;;;;;;;;;5011926;28;20859;-82
2022/10/19 08:45:31;;;;;;;13.50;12.30;;;;;;;;;;5012183;28;20416;-82
2022/10/19 08:48:13;;;;;;;13.82;12.63;;;;;;;;;;5012547;28;20712;-82
2022/10/19 08:50:41;;;;;;;13.20;12.00;;;;;;;;;;5012186;28;20405;-83
2022/10/19 08:53:12;;;;;;;13.48;12.30;;;;;;;;;;5012247;28;20396;-82
2022/10/19 08:55:44;;;;;;;14.25;13.00;;;;;;;;;;5012479;28;20730;-82
2022/10/19 08:58:17;;;;;;;14.40;13.07;;;;;;;;;;5012359;28;20416;-84
2022/10/19 09:00:49;;;;;;;16.13;14.73;;;;;;;;;;5012043;28;20420;-84
2022/10/19 09:03:24;;;;;;;17.42;15.93;;;;;;;;;;5012110;28;20791;-84
2022/10/19 09:05:59;;;;;;;19.83;18.10;;;;;;;;;;5011977;28;20413;-84
2022/10/19 09:08:25;;;;;;;18.17;16.57;;;;;;;;;;5014419;28;20439;-84
2022/10/19 09:10:53;;;;;;;19.02;17.33;;;;;;;;;;5014507;28;20404;-84
2022/10/19 09:13:38;;;;;;;19.73;17.88;;;;;;;;;;5015825;28;20393;-84
2022/10/19 09:16:04;;;;;;;20.35;18.55;;;;;;;;;;5015612;28;20381;-84
2022/10/19 09:18:32;;;;;;;19.08;17.42;;;;;;;;;;5016015;28;20399;-84
2022/10/19 09:21:09;;;;;;;17.38;15.98;;;;;;;;;;5015528;28;20455;-85
2022/10/19 09:23:35;;;;;;;17.95;16.45;;;;;;;;;;5015910;28;20435;-85
2022/10/19 09:26:03;;;;;;;18.35;16.65;;;;;;;;;;5015445;28;20405;-84
2022/10/19 09:28:35;;;;;;;18.27;16.73;;;;;;;;;;5015533;28;20516;-84
2022/10/19 09:31:01;;;;;;;16.80;15.40;;;;;;;;;;5014938;28;20468;-84
2022/10/19 09:33:38;;;;;;;17.50;15.90;;;;;;;;;;5015480;28;20435;-85
2022/10/19 09:36:05;;;;;;;16.92;15.43;;;;;;;;;;5015122;28;20395;-85
2022/10/19 09:38:31;;;;;;;16.60;15.20;;;;;;;;;;5014334;28;20389;-84
2022/10/19 09:40:58;;;;;;;16.60;15.18;;;;;;;;;;5015237;28;20384;-85
2022/10/19 09:43:25;;;;;;;15.23;13.98;;;;;;;;;;5015367;28;20393;-84
2022/10/19 09:45:53;;;;;;;12.80;11.70;;;;;;;;;;5015221;28;20408;-84
2022/10/19 09:48:19;;;;;;;11.38;10.48;;;;;;;;;;5015121;28;20407;-84
2022/10/19 09:50:45;;;;;;;10.93;9.93;;;;;;;;;;5015142;28;20863;-85
2022/10/19 09:53:17;;;;;;;9.90;9.10;;;;;;;;;;5013963;28;20396;-84
2022/10/19 09:55:43;;;;;;;10.80;9.80;;;;;;;;;;5015127;28;20909;-84
2022/10/19 09:58:13;;;;;;;9.50;8.70;;;;;;;;;;5015233;28;20814;-84
2022/10/19 10:00:59;;;;;;;9.77;8.80;;;;;;;;;;5015200;28;20450;-84
2022/10/19 10:03:26;;;;;;;9.73;8.85;;;;;;;;;;5014475;28;20887;-84
2022/10/19 10:05:53;;;;;;;9.07;8.38;;;;;;;;;;5014743;28;20499;-85
2022/10/19 10:08:33;;;;;;;9.33;8.63;;;;;;;;;;5014760;28;20425;-84
2022/10/19 10:11:12;;;;;;;10.05;9.20;;;;;;;;;;5014737;28;20376;-84
2022/10/19 10:13:40;;;;;;;9.27;8.50;;;;;;;;;;5014572;28;20501;-84
2022/10/19 10:16:07;;;;;;;9.00;8.20;;;;;;;;;;5014580;28;20391;-85
2022/10/19 10:18:36;;;;;;;8.90;8.20;;;;;;;;;;5014230;28;20460;-84
2022/10/19 10:21:02;;;;;;;8.48;7.80;;;;;;;;;;5014460;28;20381;-84
2022/10/19 10:23:30;;;;;;;8.32;7.63;;;;;;;;;;5014568;28;20392;-84
2022/10/19 10:25:57;;;;;;;8.57;7.82;;;;;;;;;;5014330;28;20503;-84
2022/10/19 10:28:24;;;;;;;8.60;7.93;;;;;;;;;;5014363;28;20399;-84
2022/10/19 10:31:06;;;;;;;8.80;8.00;;;;;;;;;;5014264;28;20735;-84
2022/10/19 10:33:35;;;;;;;8.30;7.35;;;;;;;;;;5014236;28;20412;-84
2022/10/19 10:36:03;;;;;;;8.90;8.00;;;;;;;;;;5014225;28;20790;-84
2022/10/19 10:38:38;;;;;;;8.82;8.02;;;;;;;;;;5012968;28;20411;-84
2022/10/19 10:41:23;;;;;;;8.43;7.68;;;;;;;;;;5013574;28;20473;-84
2022/10/19 10:43:54;;;;;;;8.48;7.78;;;;;;;;;;5002648;28;20472;-84
2022/10/19 10:46:24;;;;;;;9.32;8.52;;;;;;;;;;5014050;28;20762;-84
2022/10/19 10:48:56;;;;;;;9.48;8.57;;;;;;;;;;5013957;28;20432;-85
2022/10/19 10:51:32;;;;;;;8.77;8.00;;;;;;;;;;5013875;28;20935;-84
2022/10/19 10:54:16;;;;;;;8.90;8.20;;;;;;;;;;5014412;28;20385;-84
2022/10/19 10:56:43;;;;;;;8.57;7.88;;;;;;;;;;5014623;28;20404;-84
2022/10/19 10:59:15;;;;;;;8.20;7.50;;;;;;;;;;5013533;28;20475;-84
2022/10/19 11:01:44;;;;;;;8.52;7.72;;;;;;;;;;5013452;28;20403;-84
2022/10/19 11:04:21;;;;;;;9.60;8.60;;;;;;;;;;5013578;28;20385;-84
2022/10/19 11:06:52;;;;;;;8.05;7.22;;;;;;;;;;5013608;28;20474;-84
2022/10/19 11:09:35;;;;;;;9.45;8.60;;;;;;;;;;5013630;28;20385;-85
2022/10/19 11:12:03;;;;;;;9.15;8.35;;;;;;;;;;5013452;28;20427;-84
2022/10/19 11:14:32;;;;;;;10.02;9.10;;;;;;;;;;5013535;28;20464;-84
2022/10/19 11:17:03;;;;;;;9.13;8.32;;;;;;;;;;5013473;28;20443;-85
2022/10/19 11:19:33;;;;;;;11.10;10.00;;;;;;;;;;5012094;28;20901;-85
2022/10/19 11:21:59;;;;;;;32.90;19.15;;;;;;;;;;5013367;28;20813;-84
2022/10/19 11:24:37;;;;;;;14.73;11.77;;;;;;;;;;5013310;28;20412;-84
2022/10/19 11:27:09;;;;;;;13.00;11.85;;;;;;;;;;5013262;28;20404;-84
2022/10/19 11:29:47;;;;;;;12.30;11.20;;;;;;;;;;5013113;28;20413;-85
2022/10/19 11:32:22;;;;;;;14.63;13.43;;;;;;;;;;5013006;28;20381;-85
2022/10/19 11:35:04;;;;;;;16.38;15.07;;;;;;;;;;5013229;28;20391;-85
2022/10/19 11:37:36;;;;;;;15.60;14.35;;;;;;;;;;5012868;28;20377;-83
2022/10/19 11:40:11;;;;;;;13.13;12.13;;;;;;;;;;5013115;28;20381;-83
2022/10/19 11:42:49;;;;;;;11.37;10.57;;;;;;;;;;5012879;28;20377;-83
2022/10/19 11:45:33;;;;;;;11.05;10.15;;;;;;;;;;5012871;28;20997;-83
2022/10/19 11:48:14;;;;;;;14.45;13.18;;;;;;;;;;5012868;28;20380;-83
2022/10/19 11:50:47;;;;;;;10.93;10.05;;;;;;;;;;5012926;28;20936;-83
2022/10/19 11:53:34;;;;;;;9.63;8.83;;;;;;;;;;5012794;28;20467;-83
2022/10/19 11:56:08;;;;;;;10.88;9.77;;;;;;;;;;5012795;28;20862;-85
2022/10/19 11:58:40;;;;;;;9.98;8.98;;;;;;;;;;5012781;28;20373;-84
2022/10/19 12:01:12;;;;;;;9.80;9.00;;;;;;;;;;5012511;28;20870;-84
2022/10/19 12:03:44;;;;;;;10.60;9.80;;;;;;;;;;5012557;28;20373;-84
2022/10/19 12:06:25;;;;;;;9.38;8.57;;;;;;;;;;5012577;28;20973;-84
2022/10/19 12:08:57;;;;;;;11.63;10.60;;;;;;;;;;5012603;28;20377;-85
2022/10/19 12:11:42;;;;;;;11.05;9.93;;;;;;;;;;5012639;28;20499;-85
2022/10/19 12:14:13;;;;;;;10.27;9.38;;;;;;;;;;5011279;28;20392;-86
2022/10/19 12:16:45;;;;;;;9.70;8.80;;;;;;;;;;5012587;28;20385;-85
2022/10/19 12:19:19;;;;;;;9.85;8.95;;;;;;;;;;5012403;28;20384;-85
2022/10/19 12:21:45;;;;;;;9.45;8.65;;;;;;;;;;5012443;28;20389;-84
2022/10/19 12:24:19;;;;;;;9.23;8.52;;;;;;;;;;5012455;28;20431;-85
2022/10/19 12:26:46;;;;;;;10.05;8.88;;;;;;;;;;5012337;28;20736;-85
2022/10/19 12:29:15;;;;;;;10.23;9.23;;;;;;;;;;5012396;28;20381;-84
2022/10/19 12:31:41;;;;;;;12.13;9.52;;;;;;;;;;5012279;28;20399;-85
2022/10/19 12:34:29;;;;;;;9.13;8.25;;;;;;;;;;5012400;28;20399;-83
2022/10/19 12:37:18;;;;;;;9.70;8.70;;;;;;;;;;5011887;28;20956;-83
2022/10/19 12:39:44;;;;;;;10.27;9.23;;;;;;;;;;5010958;28;20779;-82
2022/10/19 12:42:29;;;;;;;9.73;8.93;;;;;;;;;;5014234;28;20925;-83
2022/10/19 12:44:55;;;;;;;9.25;8.45;;;;;;;;;;5016162;28;20380;-83
2022/10/19 12:47:23;;;;;;;9.02;8.13;;;;;;;;;;5016378;28;20712;-83
2022/10/19 12:49:50;;;;;;;9.32;7.20;;;;;;;;;;5016147;28;20389;-83
2022/10/19 12:52:33;;;;;;;8.55;7.70;;;;;;;;;;5016107;28;20383;-83
2022/10/19 12:55:10;;;;;;;8.48;7.70;;;;;;;;;;5016155;28;20393;-82
2022/10/19 12:57:37;;;;;;;8.55;7.85;;;;;;;;;;5016127;28;20377;-83
2022/10/19 13:00:18;;;;;;;8.77;8.00;;;;;;;;;;5015987;28;20417;-82
2022/10/19 13:02:45;;;;;;;10.77;8.50;;;;;;;;;;5015658;28;20399;-82
2022/10/19 13:05:22;;;;;;;9.30;8.40;;;;;;;;;;5015757;28;20385;-83
2022/10/19 13:07:49;;;;;;;9.05;8.13;;;;;;;;;;5015834;28;20467;-83
2022/10/19 13:10:22;;;;;;;8.73;7.93;;;;;;;;;;5015774;28;20456;-82
2022/10/19 13:12:49;;;;;;;27.02;9.40;;;;;;;;;;5015759;28;20381;-84
2022/10/19 13:15:33;;;;;;;9.75;8.18;;;;;;;;;;5015629;28;20385;-84
2022/10/19 13:17:59;;;;;;;8.87;7.97;;;;;;;;;;5015572;28;20377;-85
2022/10/19 13:20:26;;;;;;;8.77;7.97;;;;;;;;;;5015538;28;20484;-84
2022/10/19 13:22:58;;;;;;;8.38;7.60;;;;;;;;;;5015528;28;20408;-85
2022/10/19 13:25:34;;;;;;;7.55;6.95;;;;;;;;;;5015006;28;20420;-85
2022/10/19 13:28:01;;;;;;;8.13;7.30;;;;;;;;;;5015684;28;20404;-85
2022/10/19 13:30:36;;;;;;;8.07;7.35;;;;;;;;;;5015464;28;20388;-85
2022/10/19 13:33:27;;;;;;;7.35;6.55;;;;;;;;;;5015377;28;20467;-85
2022/10/19 13:35:59;;;;;;;8.25;7.45;;;;;;;;;;5015098;28;20455;-85
2022/10/19 13:38:29;;;;;;;8.27;7.57;;;;;;;;;;5015273;28;20391;-84
2022/10/19 13:41:01;;;;;;;9.27;8.48;;;;;;;;;;5015184;28;20472;-85
2022/10/19 13:43:48;;;;;;;8.60;7.72;;;;;;;;;;5014832;28;20454;-85
2022/10/19 13:46:16;;;;;;;8.85;7.78;;;;;;;;;;5009173;28;20411;-83
2022/10/19 13:48:42;;;;;;;8.93;8.02;;;;;;;;;;5015062;28;20862;-83
2022/10/19 13:51:23;;;;;;;8.57;7.78;;;;;;;;;;5015097;28;20384;-83
2022/10/19 13:54:00;;;;;;;9.68;8.02;;;;;;;;;;5014412;28;20438;-83
2022/10/19 13:56:44;;;;;;;8.02;7.22;;;;;;;;;;5014888;28;20914;-83
2022/10/19 13:59:29;;;;;;;8.60;7.22;;;;;;;;;;5014903;28;20451;-85
2022/10/19 14:02:08;;;;;;;8.75;7.97;;;;;;;;;;5014635;28;20400;-85
2022/10/19 14:04:57;;;;;;;8.02;6.97;;;;;;;;;;5014784;28;20969;-85
2022/10/19 14:07:30;;;;;;;7.90;7.10;;;;;;;;;;5009220;28;20400;-83
2022/10/19 14:10:01;;;;;;;7.72;7.10;;;;;;;;;;5014744;28;20389;-83
2022/10/19 14:12:29;;;;;;;9.45;8.40;;;;;;;;;;5014622;28;20376;-83
2022/10/19 14:14:55;;;;;;;9.77;8.93;;;;;;;;;;5014721;28;20388;-84
2022/10/19 14:17:32;;;;;;;9.35;8.50;;;;;;;;;;5014552;28;20377;-85
2022/10/19 14:19:58;;;;;;;10.02;8.52;;;;;;;;;;5014612;28;20420;-84
2022/10/19 14:22:24;;;;;;;9.57;8.55;;;;;;;;;;5014471;28;20381;-85
2022/10/19 14:24:51;;;;;;;8.80;8.00;;;;;;;;;;5014463;28;20373;-85
2022/10/19 14:27:24;;;;;;;8.85;8.05;;;;;;;;;;5014455;28;20389;-84
2022/10/19 14:29:51;;;;;;;9.20;8.20;;;;;;;;;;5014367;28;20385;-85
2022/10/19 14:32:18;;;;;;;9.70;8.68;;;;;;;;;;5014247;28;20473;-85
2022/10/19 14:34:45;;;;;;;8.85;8.00;;;;;;;;;;5013889;28;20715;-85
2022/10/19 14:37:32;;;;;;;9.10;8.30;;;;;;;;;;5013949;28;20416;-83
2022/10/19 14:39:58;;;;;;;9.48;8.52;;;;;;;;;;5001627;28;20385;-85
2022/10/19 14:42:24;;;;;;;11.88;9.10;;;;;;;;;;5012974;28;20480;-85
2022/10/19 14:44:50;;;;;;;10.27;8.82;;;;;;;;;;5014010;28;20542;-83
2022/10/19 14:47:18;;;;;;;9.82;8.55;;;;;;;;;;5014084;28;20898;-83
2022/10/19 14:49:44;;;;;;;10.43;9.52;;;;;;;;;;5013923;28;20388;-84
2022/10/19 14:52:12;;;;;;;10.50;9.02;;;;;;;;;;5013852;28;20724;-83
2022/10/19 14:54:40;;;;;;;11.47;9.13;;;;;;;;;;5014079;28;20482;-83
2022/10/19 14:57:08;;;;;;;9.25;8.43;;;;;;;;;;5013694;28;20906;-82
2022/10/19 14:59:39;;;;;;;9.00;8.10;;;;;;;;;;5013814;28;20412;-81
2022/10/19 15:02:31;;;;;;;15.63;9.63;;;;;;;;;;5013535;28;20393;-81
2022/10/19 15:04:58;;;;;;;10.77;8.80;;;;;;;;;;5005814;28;20392;-81
2022/10/19 15:07:41;;;;;;;9.63;8.82;;;;;;;;;;5013657;28;20431;-85
2022/10/19 15:10:08;;;;;;;9.93;8.93;;;;;;;;;;5013494;28;20384;-83
2022/10/19 15:12:36;;;;;;;9.25;8.35;;;;;;;;;;5014250;28;20451;-83
2022/10/19 15:15:17;;;;;;;9.52;8.32;;;;;;;;;;5013473;28;20391;-83
2022/10/19 15:18:04;;;;;;;9.10;8.18;;;;;;;;;;5013457;28;20385;-83
2022/10/19 15:20:34;;;;;;;11.67;8.80;;;;;;;;;;5013842;28;20385;-83
2022/10/19 15:23:01;;;;;;;9.20;8.20;;;;;;;;;;5013371;28;20431;-83
2022/10/19 15:25:35;;;;;;;12.75;8.90;;;;;;;;;;5013407;28;20381;-83
2022/10/19 15:28:22;;;;;;;12.57;8.57;;;;;;;;;;5013547;28;20384;-84
2022/10/19 15:30:57;;;;;;;9.95;8.85;;;;;;;;;;5006147;28;20475;-84
2022/10/19 15:33:23;;;;;;;9.88;9.00;;;;;;;;;;5013151;28;20385;-83
2022/10/19 15:35:49;;;;;;;11.25;9.23;;;;;;;;;;5002929;28;20513;-85
2022/10/19 15:38:21;;;;;;;11.43;9.40;;;;;;;;;;5011330;28;20377;-84
2022/10/19 15:40:48;;;;;;;10.10;9.10;;;;;;;;;;5013131;28;20515;-83
2022/10/19 15:43:23;;;;;;;9.88;8.98;;;;;;;;;;5012657;28;20869;-84
2022/10/19 15:45:59;;;;;;;9.45;8.65;;;;;;;;;;5008439;28;20393;-84
2022/10/19 15:48:26;;;;;;;10.05;9.10;;;;;;;;;;5000857;28;20876;-84
2022/10/19 15:50:53;;;;;;;9.97;8.97;;;;;;;;;;4992006;28;20386;-84
2022/10/19 15:53:19;;;;;;;9.35;8.55;;;;;;;;;;4994104;28;20394;-84
2022/10/19 15:55:45;;;;;;;9.50;8.60;;;;;;;;;;5012687;28;20450;-83
2022/10/19 15:58:12;;;;;;;8.77;7.97;;;;;;;;;;5013016;28;20377;-83
2022/10/19 16:00:38;;;;;;;9.30;8.40;;;;;;;;;;5012538;28;20408;-84
2022/10/19 16:03:04;;;;;;;9.53;8.73;;;;;;;;;;5012844;28;20404;-84
2022/10/19 16:05:30;;;;;;;9.50;8.70;;;;;;;;;;5012516;28;20385;-84
2022/10/19 16:07:56;;;;;;;8.80;8.10;;;;;;;;;;5010691;28;20393;-84
2022/10/19 16:10:24;;;;;;;9.47;8.50;;;;;;;;;;4994066;28;20456;-83
2022/10/19 16:12:50;;;;;;;9.35;8.50;;;;;;;;;;5000079;28;20490;-83
2022/10/19 16:15:21;;;;;;;9.88;8.90;;;;;;;;;;5004635;28;20390;-82
2022/10/19 16:17:47;;;;;;;9.88;8.85;;;;;;;;;;4995288;28;20381;-85
2022/10/19 16:20:13;;;;;;;9.02;8.23;;;;;;;;;;5005375;28;20395;-86
2022/10/19 16:22:39;;;;;;;8.45;7.82;;;;;;;;;;4998288;28;20382;-85
2022/10/19 16:25:06;;;;;;;9.25;8.35;;;;;;;;;;5012419;28;20381;-85
2022/10/19 16:27:32;;;;;;;8.55;7.95;;;;;;;;;;5009996;28;21373;-84
2022/10/19 16:29:58;;;;;;;8.82;8.02;;;;;;;;;;5011421;28;20389;-84
2022/10/19 16:32:24;;;;;;;8.30;7.57;;;;;;;;;;5010837;28;20410;-85
2022/10/19 16:34:50;;;;;;;8.90;8.18;;;;;;;;;;5012090;28;20395;-86
2022/10/19 16:37:16;;;;;;;9.00;8.20;;;;;;;;;;5008675;28;20905;-84
2022/10/19 16:39:42;;;;;;;8.65;7.95;;;;;;;;;;5011792;28;20384;-85
2022/10/19 16:42:08;;;;;;;9.18;8.38;;;;;;;;;;5011735;28;20451;-84
2022/10/19 16:44:34;;;;;;;9.25;8.48;;;;;;;;;;5012094;28;20389;-85
2022/10/19 16:47:00;;;;;;;8.65;7.85;;;;;;;;;;5012201;28;20388;-84
2022/10/19 16:49:26;;;;;;;9.07;8.27;;;;;;;;;;5012156;28;20472;-85
2022/10/19 16:51:52;;;;;;;9.30;8.50;;;;;;;;;;5011478;28;20925;-84
2022/10/19 16:54:18;;;;;;;9.15;7.78;;;;;;;;;;5012234;28;20446;-83
2022/10/19 16:56:45;;;;;;;9.10;8.32;;;;;;;;;;5012051;28;20412;-83
2022/10/19 16:59:13;;;;;;;9.60;8.80;;;;;;;;;;5011913;28;20376;-81
2022/10/19 17:01:40;;;;;;;9.77;8.83;;;;;;;;;;5011587;28;20392;-80
2022/10/19 17:04:06;;;;;;;9.07;8.13;;;;;;;;;;5012035;28;20405;-80
2022/10/19 17:06:33;;;;;;;10.20;9.25;;;;;;;;;;5012132;28;20426;-80
2022/10/19 17:08:59;;;;;;;10.52;8.93;;;;;;;;;;5011904;28;20869;-80
2022/10/19 17:11:25;;;;;;;12.63;11.43;;;;;;;;;;5011462;28;20822;-80
2022/10/19 17:13:52;;;;;;;13.88;12.48;;;;;;;;;;5011493;28;20395;-83
2022/10/19 17:16:19;;;;;;;10.25;9.35;;;;;;;;;;5011344;28;20884;-82
2022/10/19 17:18:46;;;;;;;11.23;10.15;;;;;;;;;;5010871;28;20479;-82
2022/10/19 17:21:13;;;;;;;15.43;13.88;;;;;;;;;;5009520;28;20392;-81
2022/10/19 17:23:40;;;;;;;17.00;15.20;;;;;;;;;;5002733;28;20414;-83
2022/10/19 17:26:07;;;;;;;15.55;14.02;;;;;;;;;;5011930;28;20392;-82
2022/10/19 17:28:33;;;;;;;9.98;9.13;;;;;;;;;;5007088;28;20747;-82
2022/10/19 17:31:07;;;;;;;12.85;11.65;;;;;;;;;;5015276;28;20434;-82
2022/10/19 17:33:33;;;;;;;10.52;9.60;;;;;;;;;;5010026;28;20394;-82
2022/10/19 17:36:07;;;;;;;12.35;11.30;;;;;;;;;;5012395;28;20924;-83
2022/10/19 17:38:33;;;;;;;13.48;12.27;;;;;;;;;;5014307;28;20381;-83
2022/10/19 17:41:07;;;;;;;13.18;11.60;;;;;;;;;;5014349;28;20381;-83
2022/10/19 17:43:33;;;;;;;11.82;10.63;;;;;;;;;;5002057;28;20386;-82
2022/10/19 17:46:04;;;;;;;11.38;10.38;;;;;;;;;;4995669;28;20493;-83
2022/10/19 17:48:30;;;;;;;10.82;9.82;;;;;;;;;;4995264;28;20448;-83
2022/10/19 17:51:06;;;;;;;12.02;10.95;;;;;;;;;;4996761;28;20441;-81
2022/10/19 17:53:33;;;;;;;10.38;9.38;;;;;;;;;;4996761;28;20892;-81
2022/10/19 17:56:00;;;;;;;9.07;8.38;;;;;;;;;;4993976;28;20484;-80
2022/10/19 17:58:27;;;;;;;9.93;9.02;;;;;;;;;;5009473;28;20388;-81
2022/10/19 18:00:56;;;;;;;10.47;9.47;;;;;;;;;;5012394;28;20449;-81
2022/10/19 18:03:25;;;;;;;9.98;9.18;;;;;;;;;;5001267;28;20427;-82
2022/10/19 18:05:59;;;;;;;9.10;8.40;;;;;;;;;;5006802;28;20887;-82
2022/10/19 18:08:25;;;;;;;9.88;8.95;;;;;;;;;;5005092;28;20852;-80
2022/10/19 18:11:05;;;;;;;10.05;8.57;;;;;;;;;;5011802;28;20392;-80
2022/10/19 18:13:31;;;;;;;9.93;8.93;;;;;;;;;;5004504;28;20457;-80
2022/10/19 18:16:01;;;;;;;10.93;9.82;;;;;;;;;;5005025;28;20920;-83
2022/10/19 18:18:31;;;;;;;9.00;8.30;;;;;;;;;;5002526;28;20458;-83
2022/10/19 18:20:57;;;;;;;9.87;8.83;;;;;;;;;;5006182;28;20400;-83
2022/10/19 18:23:23;;;;;;;9.57;8.77;;;;;;;;;;5006997;28;20480;-82
2022/10/19 18:25:49;;;;;;;10.57;9.68;;;;;;;;;;5009282;28;20456;-82
2022/10/19 18:28:16;;;;;;;11.18;10.20;;;;;;;;;;5007811;28;20884;-82
2022/10/19 18:30:42;;;;;;;10.37;9.47;;;;;;;;;;5009604;28;20397;-82
2022/10/19 18:33:08;;;;;;;10.02;9.30;;;;;;;;;;5010717;28;20405;-82
2022/10/19 18:35:43;;;;;;;9.73;8.93;;;;;;;;;;5009862;28;20423;-83
2022/10/19 18:38:09;;;;;;;9.73;8.93;;;;;;;;;;5024402;28;20788;-83
2022/10/19 18:40:38;;;;;;;9.90;9.00;;;;;;;;;;5010229;28;20381;-83
2022/10/19 18:43:04;;;;;;;10.40;9.40;;;;;;;;;;5009881;28;20756;-83